createdAt,value
2022-09-07T00:00:08.113Z,5.70
2022-09-07T00:02:36.615Z,8.43
2022-09-07T00:05:05.036Z,8.05
2022-09-07T00:07:33.559Z,7.63
2022-09-07T00:10:01.867Z,5.93
2022-09-07T00:12:29.927Z,6.18
2022-09-07T00:14:59.327Z,6.78
2022-09-07T00:17:28.254Z,7.43
2022-09-07T00:19:56.336Z,8.73
2022-09-07T00:22:24.668Z,7.28
2022-09-07T00:24:53.100Z,7.88
2022-09-07T00:27:21.211Z,5.47
2022-09-07T00:29:49.324Z,6.90
2022-09-07T00:32:18.965Z,5.95
2022-09-07T00:34:49.485Z,7.30
2022-09-07T00:37:17.931Z,7.60
2022-09-07T00:39:46.109Z,5.88
2022-09-07T00:42:14.749Z,8.43
2022-09-07T00:45:02.909Z,7.50
2022-09-07T00:47:39.067Z,6.47
2022-09-07T00:50:12.820Z,6.75
2022-09-07T00:52:43.488Z,8.48
2022-09-07T00:55:14.416Z,8.55
2022-09-07T00:57:46.420Z,7.18
2022-09-07T01:00:14.796Z,7.53
2022-09-07T01:02:44.749Z,9.63
2022-09-07T01:05:21.501Z,9.77
2022-09-07T01:07:49.953Z,7.07
2022-09-07T01:10:19.127Z,7.93
2022-09-07T01:12:47.503Z,7.05
2022-09-07T01:15:15.589Z,6.20
2022-09-07T01:17:57.207Z,7.38
2022-09-07T01:20:50.563Z,6.35
2022-09-07T01:23:37.382Z,6.20
2022-09-07T01:26:31.246Z,6.07
2022-09-07T01:29:05.485Z,8.07
2022-09-07T01:31:43.571Z,6.75
2022-09-07T01:34:18.217Z,6.32
2022-09-07T01:36:52.916Z,6.35
2022-09-07T01:39:24.584Z,7.82
2022-09-07T01:41:57.379Z,6.13
2022-09-07T01:44:31.819Z,8.02
2022-09-07T01:47:03.708Z,7.00
2022-09-07T01:49:37.004Z,6.50
2022-09-07T01:52:09.052Z,6.28
2022-09-07T01:54:42.670Z,9.30
2022-09-07T01:57:16.494Z,6.88
2022-09-07T01:59:50.026Z,9.65
2022-09-07T02:02:21.696Z,7.63
2022-09-07T02:04:54.478Z,6.47
2022-09-07T02:07:28.721Z,6.82
2022-09-07T02:10:21.972Z,7.38
2022-09-07T02:12:54.504Z,6.45
2022-09-07T02:15:28.640Z,7.57
2022-09-07T02:18:02.564Z,8.38
2022-09-07T02:20:33.743Z,6.45
2022-09-07T02:23:05.705Z,7.65
2022-09-07T02:25:38.947Z,6.35
2022-09-07T02:28:11.756Z,7.07
2022-09-07T02:30:41.383Z,9.48
2022-09-07T02:33:09.764Z,7.20
2022-09-07T02:35:38.396Z,7.53
2022-09-07T02:38:08.184Z,6.80
2022-09-07T02:40:36.915Z,6.88
2022-09-07T02:43:08.397Z,9.88
2022-09-07T02:45:47.804Z,10.10
2022-09-07T02:48:24.143Z,6.30
2022-09-07T02:51:03.287Z,8.48
2022-09-07T02:53:49.112Z,7.30
2022-09-07T02:56:28.522Z,8.00
2022-09-07T02:59:05.558Z,8.38
2022-09-07T03:01:45.939Z,7.25
2022-09-07T03:04:16.616Z,7.72
2022-09-07T03:06:49.152Z,10.70
2022-09-07T03:09:22.469Z,11.38
2022-09-07T03:11:51.374Z,8.32
2022-09-07T03:14:22.366Z,8.57
2022-09-07T03:16:54.605Z,7.78
2022-09-07T03:19:23.134Z,9.80
2022-09-07T03:21:53.853Z,7.20
2022-09-07T03:24:22.077Z,9.85
2022-09-07T03:26:51.638Z,10.98
2022-09-07T03:29:20.236Z,11.57
2022-09-07T03:31:48.320Z,10.20
2022-09-07T03:34:18.314Z,7.90
2022-09-07T03:36:46.393Z,8.60
2022-09-07T03:39:14.916Z,7.47
2022-09-07T03:41:43.202Z,7.65
2022-09-07T03:44:11.779Z,6.90
2022-09-07T03:46:40.087Z,11.10
2022-09-07T03:49:08.314Z,6.60
2022-09-07T03:51:37.741Z,9.20
2022-09-07T03:54:06.036Z,7.03
2022-09-07T03:56:34.331Z,9.60
2022-09-07T03:59:03.017Z,7.97
2022-09-07T04:01:31.280Z,10.52
2022-09-07T04:04:02.740Z,9.38
2022-09-07T04:06:32.248Z,9.75
2022-09-07T04:09:04.961Z,9.57
2022-09-07T04:11:34.258Z,7.70
2022-09-07T04:14:02.622Z,9.68
2022-09-07T04:16:32.437Z,7.85
2022-09-07T04:19:00.709Z,8.55
2022-09-07T04:21:30.354Z,7.93
2022-09-07T04:23:59.873Z,8.85
2022-09-07T04:26:31.971Z,8.35
2022-09-07T04:29:01.367Z,7.00
2022-09-07T04:31:29.787Z,8.82
2022-09-07T04:33:58.084Z,8.38
2022-09-07T04:36:26.388Z,14.50
2022-09-07T04:38:59.516Z,11.60
2022-09-07T04:41:31.854Z,13.15
2022-09-07T04:44:02.113Z,7.80
2022-09-07T04:46:33.779Z,10.50
2022-09-07T04:49:04.773Z,8.68
2022-09-07T04:51:34.144Z,8.80
2022-09-07T04:54:03.984Z,8.07
2022-09-07T04:56:33.617Z,11.73
2022-09-07T04:59:02.858Z,9.38
2022-09-07T05:01:31.457Z,10.02
2022-09-07T05:04:01.824Z,8.48
2022-09-07T05:06:31.255Z,9.70
2022-09-07T05:09:00.436Z,12.52
2022-09-07T05:11:30.188Z,10.27
2022-09-07T05:14:00.505Z,13.45
2022-09-07T05:16:29.657Z,11.82
2022-09-07T05:19:01.338Z,11.05
2022-09-07T05:21:31.532Z,8.95
2022-09-07T05:24:09.316Z,11.00
2022-09-07T05:26:39.756Z,13.82
2022-09-07T05:31:58.578Z,15.88
2022-09-07T05:36:56.369Z,14.70
2022-09-07T05:39:25.148Z,16.75
2022-09-07T05:41:53.932Z,13.27
2022-09-07T05:47:12.026Z,16.27
2022-09-07T05:49:40.237Z,17.08
2022-09-07T05:52:08.587Z,15.43
2022-09-07T05:54:36.676Z,16.15
2022-09-07T05:57:05.141Z,13.70
2022-09-07T05:59:34.793Z,16.65
2022-09-07T06:02:03.243Z,17.85
2022-09-07T06:04:31.350Z,17.15
2022-09-07T06:07:20.547Z,19.15
2022-09-07T06:12:36.947Z,17.80
2022-09-07T06:15:07.385Z,18.20
2022-09-07T06:17:35.739Z,18.73
2022-09-07T06:20:04.720Z,18.10
2022-09-07T06:22:32.880Z,19.60
2022-09-07T06:25:01.182Z,20.13
2022-09-07T06:27:29.649Z,18.70
2022-09-07T06:29:58.328Z,19.45
2022-09-07T06:32:43.580Z,19.08
2022-09-07T06:35:12.574Z,19.92
2022-09-07T06:37:40.998Z,22.17
2022-09-07T06:40:11.226Z,20.80
2022-09-07T06:42:39.726Z,20.02
2022-09-07T06:45:11.647Z,19.50
2022-09-07T06:47:41.763Z,18.95
2022-09-07T06:50:12.576Z,19.90
2022-09-07T06:55:29.329Z,20.67
2022-09-07T06:57:57.791Z,21.40
2022-09-07T07:00:25.893Z,19.90
2022-09-07T07:02:55.590Z,18.48
2022-09-07T07:05:23.744Z,20.45
2022-09-07T07:07:52.053Z,18.83
2022-09-07T07:10:24.612Z,19.27
2022-09-07T07:12:57.584Z,17.27
2022-09-07T07:15:28.722Z,15.60
2022-09-07T07:18:09.290Z,15.75
2022-09-07T07:20:46.890Z,16.85
2022-09-07T07:23:15.191Z,16.20
2022-09-07T07:25:43.266Z,15.27
2022-09-07T07:31:03.114Z,13.75
2022-09-07T07:33:37.826Z,14.88
2022-09-07T07:36:13.734Z,11.63
2022-09-07T07:44:17.854Z,14.55
2022-09-07T07:46:49.147Z,12.13
2022-09-07T07:49:18.769Z,9.77
2022-09-07T07:54:36.717Z,10.95
2022-09-07T07:57:05.389Z,9.65
2022-09-07T07:59:33.467Z,11.15
2022-09-07T08:02:04.780Z,9.95
2022-09-07T08:04:35.822Z,11.40
2022-09-07T08:07:10.242Z,10.75
2022-09-07T08:09:41.018Z,12.15
2022-09-07T08:12:11.203Z,9.88
2022-09-07T08:14:41.191Z,9.68
2022-09-07T08:17:10.566Z,11.00
2022-09-07T08:19:40.475Z,10.57
2022-09-07T08:22:08.869Z,8.85
2022-09-07T08:24:37.229Z,8.10
2022-09-07T08:27:05.338Z,8.98
2022-09-07T08:29:35.432Z,9.18
2022-09-07T08:32:05.300Z,9.25
2022-09-07T08:34:33.760Z,8.02
2022-09-07T08:37:03.043Z,13.15
2022-09-07T08:39:31.299Z,8.00
2022-09-07T08:42:14.636Z,10.35
2022-09-07T08:44:47.427Z,10.90
2022-09-07T08:47:25.687Z,8.53
2022-09-07T08:50:52.631Z,10.55
2022-09-07T08:53:25.021Z,8.18
2022-09-07T08:55:58.495Z,6.13
2022-09-07T08:58:48.610Z,10.05
2022-09-07T09:01:36.014Z,5.72
2022-09-07T09:06:11.038Z,8.40
2022-09-07T09:07:11.676Z,8.02
2022-09-07T09:09:59.441Z,4.25
2022-09-07T09:12:37.825Z,8.60
2022-09-07T09:15:17.585Z,6.28
2022-09-07T09:17:53.500Z,3.50
2022-09-07T09:20:27.170Z,4.82
2022-09-07T09:22:58.110Z,3.35
2022-09-07T09:25:33.849Z,4.90
2022-09-07T09:28:02.574Z,5.55
2022-09-07T09:30:31.320Z,3.05
2022-09-07T09:33:15.972Z,4.28
2022-09-07T09:35:45.766Z,4.38
2022-09-07T09:38:31.224Z,4.70
2022-09-07T09:41:03.642Z,5.55
2022-09-07T09:43:37.972Z,5.85
2022-09-07T09:46:21.676Z,4.10
2022-09-07T09:48:56.814Z,5.47
2022-09-07T09:54:23.529Z,4.20
2022-09-07T09:56:53.418Z,4.65
2022-09-07T10:05:27.391Z,6.43
2022-09-07T10:07:56.268Z,5.63
2022-09-07T10:10:24.966Z,6.15
2022-09-07T10:12:56.021Z,6.03
2022-09-07T10:15:40.113Z,5.32
2022-09-07T10:18:19.123Z,5.78
2022-09-07T10:20:47.203Z,3.20
2022-09-07T10:23:23.275Z,5.25
2022-09-07T10:25:51.308Z,4.70
2022-09-07T10:28:22.601Z,2.67
2022-09-07T10:31:13.931Z,3.00
2022-09-07T10:36:49.802Z,3.70
2022-09-07T10:39:23.254Z,4.05
2022-09-07T10:42:02.556Z,3.05
2022-09-07T10:44:43.413Z,4.40
2022-09-07T10:47:17.679Z,3.55
2022-09-07T10:52:47.438Z,4.22
2022-09-07T10:55:21.312Z,4.70
2022-09-07T10:58:03.683Z,4.38
2022-09-07T11:00:42.216Z,2.13
2022-09-07T11:03:26.076Z,4.00
2022-09-07T11:06:09.673Z,2.17
2022-09-07T11:14:32.373Z,3.40
2022-09-07T11:17:04.905Z,8.02
2022-09-07T11:19:38.087Z,4.95
2022-09-07T11:22:20.856Z,4.57
2022-09-07T11:27:48.318Z,2.28
2022-09-07T11:30:23.035Z,2.30
2022-09-07T11:33:04.346Z,4.30
2022-09-07T11:35:41.427Z,2.47
2022-09-07T11:38:20.042Z,2.63
2022-09-07T11:41:08.866Z,2.08
2022-09-07T11:43:42.844Z,2.97
2022-09-07T11:46:15.871Z,1.88
2022-09-07T11:48:48.961Z,4.82
2022-09-07T11:51:22.733Z,3.92
2022-09-07T11:53:55.109Z,5.43
2022-09-07T11:56:35.889Z,1.27
2022-09-07T11:59:26.318Z,3.15
2022-09-07T12:02:11.152Z,2.30
2022-09-07T12:04:56.681Z,1.73
2022-09-07T12:07:54.539Z,3.15
2022-09-07T12:10:48.964Z,2.88
2022-09-07T12:13:45.412Z,1.40
2022-09-07T12:16:20.931Z,1.38
2022-09-07T12:19:14.533Z,2.13
2022-09-07T12:21:46.266Z,4.40
2022-09-07T12:24:42.233Z,1.88
2022-09-07T12:27:38.518Z,2.22
2022-09-07T12:30:49.119Z,2.25
2022-09-07T12:33:25.684Z,2.35
2022-09-07T12:35:57.904Z,1.75
2022-09-07T12:38:59.744Z,1.77
2022-09-07T12:41:47.452Z,2.83
2022-09-07T12:44:24.915Z,2.05
2022-09-07T12:46:57.162Z,1.90
2022-09-07T12:49:40.543Z,1.60
2022-09-07T12:52:33.208Z,2.47
2022-09-07T12:55:27.918Z,5.25
2022-09-07T12:58:10.560Z,8.77
2022-09-07T13:00:53.214Z,5.65
2022-09-07T13:04:03.096Z,2.70
2022-09-07T13:09:34.610Z,2.15
2022-09-07T13:15:41.074Z,2.00
2022-09-07T13:18:12.737Z,4.00
2022-09-07T13:20:41.711Z,1.25
2022-09-07T13:23:25.738Z,1.30
2022-09-07T13:26:00.187Z,2.45
2022-09-07T13:28:52.675Z,1.20
2022-09-07T13:31:34.907Z,0.80
2022-09-07T13:34:44.946Z,3.95
2022-09-07T13:37:20.074Z,2.60
2022-09-07T13:39:52.573Z,1.48
2022-09-07T13:42:25.381Z,2.30
2022-09-07T13:44:56.101Z,2.22
2022-09-07T13:47:45.726Z,2.63
2022-09-07T13:50:23.248Z,2.40
2022-09-07T13:53:18.575Z,2.10
2022-09-07T13:55:56.132Z,1.80
2022-09-07T13:58:30.097Z,3.80
2022-09-07T14:01:02.347Z,0.95
2022-09-07T14:03:39.189Z,0.85
2022-09-07T14:06:27.451Z,1.08
2022-09-07T14:08:56.871Z,2.40
2022-09-07T14:11:27.804Z,2.38
2022-09-07T14:14:16.302Z,2.50
2022-09-07T14:16:47.663Z,1.58
2022-09-07T14:19:23.978Z,2.70
2022-09-07T14:22:00.320Z,2.33
2022-09-07T14:24:34.179Z,1.83
2022-09-07T14:27:02.746Z,2.20
2022-09-07T14:29:33.134Z,1.70
2022-09-07T14:32:03.368Z,1.35
2022-09-07T14:34:36.426Z,3.15
2022-09-07T14:37:08.261Z,2.53
2022-09-07T14:39:40.416Z,1.45
2022-09-07T14:42:11.508Z,4.70
2022-09-07T14:44:43.133Z,1.73
2022-09-07T14:47:22.941Z,2.65
2022-09-07T14:49:55.803Z,2.88
2022-09-07T14:52:29.763Z,4.50
2022-09-07T14:54:58.177Z,2.97
2022-09-07T14:57:32.274Z,2.35
2022-09-07T15:02:43.150Z,2.05
2022-09-07T15:05:18.879Z,2.97
2022-09-07T15:07:48.678Z,3.00
2022-09-07T15:10:26.752Z,3.85
2022-09-07T15:12:56.677Z,3.28
2022-09-07T15:15:27.551Z,2.55
2022-09-07T15:18:01.913Z,2.40
2022-09-07T15:20:41.366Z,1.50
2022-09-07T15:23:14.531Z,3.58
2022-09-07T15:25:48.182Z,1.70
2022-09-07T15:34:02.691Z,2.17
2022-09-07T15:36:32.354Z,2.00
2022-09-07T15:39:01.205Z,4.38
2022-09-07T15:41:29.660Z,3.10
2022-09-07T15:43:58.379Z,4.28
2022-09-07T15:46:26.626Z,3.55
2022-09-07T15:48:56.435Z,2.90
2022-09-07T15:54:15.701Z,3.15
2022-09-07T15:57:48.362Z,1.77
2022-09-07T15:59:32.938Z,3.17
2022-09-07T16:02:01.575Z,4.50
2022-09-07T16:04:30.420Z,2.80
2022-09-07T16:07:01.565Z,3.78
2022-09-07T16:09:32.250Z,2.67
2022-09-07T16:14:48.774Z,6.40
2022-09-07T16:20:05.657Z,6.43
2022-09-07T16:25:23.946Z,2.35
2022-09-07T16:27:52.205Z,2.47
2022-09-07T16:30:20.254Z,3.33
2022-09-07T16:32:51.008Z,6.72
2022-09-07T16:35:19.050Z,4.38
2022-09-07T16:40:42.141Z,2.58
2022-09-07T16:43:10.390Z,2.95
2022-09-07T16:48:26.685Z,4.68
2022-09-07T16:51:01.062Z,2.38
2022-09-07T16:53:30.873Z,9.00
2022-09-07T16:56:03.679Z,8.40
2022-09-07T16:58:36.212Z,7.40
2022-09-07T17:01:05.501Z,6.20
2022-09-07T17:03:33.945Z,3.75
2022-09-07T17:06:02.088Z,5.07
2022-09-07T17:08:30.243Z,3.88
2022-09-07T17:11:01.056Z,3.50
2022-09-07T17:13:32.140Z,3.38
2022-09-07T17:16:03.526Z,5.47
2022-09-07T17:21:20.670Z,8.40
2022-09-07T17:23:54.921Z,23.63
2022-09-07T17:26:27.304Z,18.67
2022-09-07T17:29:00.525Z,9.30
2022-09-07T17:34:19.623Z,4.32
2022-09-07T17:36:48.262Z,3.47
2022-09-07T17:39:18.534Z,4.85
2022-09-07T17:41:47.844Z,3.42
2022-09-07T17:44:17.331Z,3.42
2022-09-07T17:46:45.567Z,3.58
2022-09-07T17:49:16.361Z,4.88
2022-09-07T17:51:45.049Z,3.35
2022-09-07T17:54:15.541Z,3.72
2022-09-07T17:56:44.723Z,3.67
2022-09-07T18:02:03.016Z,2.97
2022-09-07T18:04:31.117Z,3.95
2022-09-07T18:06:59.093Z,3.10
2022-09-07T18:09:27.064Z,5.35
2022-09-07T18:11:55.065Z,7.88
2022-09-07T18:14:23.222Z,7.15
2022-09-07T18:16:51.525Z,5.53
2022-09-07T18:19:21.094Z,5.93
2022-09-07T18:21:50.647Z,4.30
2022-09-07T18:24:21.996Z,5.05
2022-09-07T18:26:52.633Z,4.95
2022-09-07T18:29:37.418Z,5.28
2022-09-07T18:32:08.920Z,5.53
2022-09-07T18:34:41.190Z,5.07
2022-09-07T18:37:12.036Z,4.13
2022-09-07T18:39:40.884Z,5.93
2022-09-07T18:42:09.402Z,4.70
2022-09-07T18:47:29.795Z,4.70
2022-09-07T18:49:59.540Z,6.80
2022-09-07T18:55:17.378Z,11.63
2022-09-07T18:57:45.484Z,8.38
2022-09-07T19:00:14.496Z,6.53
2022-09-07T19:02:42.624Z,6.30
2022-09-07T19:08:03.266Z,8.07
2022-09-07T19:10:33.920Z,6.95
2022-09-07T19:13:01.956Z,8.82
2022-09-07T19:15:32.300Z,6.07
2022-09-07T19:18:04.585Z,6.60
2022-09-07T19:20:34.919Z,6.10
2022-09-07T19:23:03.288Z,6.80
2022-09-07T19:25:31.594Z,6.65
2022-09-07T19:27:59.612Z,6.55
2022-09-07T19:30:27.903Z,6.63
2022-09-07T19:32:57.108Z,5.38
2022-09-07T19:35:26.659Z,6.00
2022-09-07T19:37:55.988Z,6.40
2022-09-07T19:40:24.142Z,6.50
2022-09-07T19:42:52.186Z,8.00
2022-09-07T19:45:20.227Z,7.32
2022-09-07T19:47:50.520Z,6.55
2022-09-07T19:50:20.742Z,7.63
2022-09-07T19:52:49.093Z,6.78
2022-09-07T19:55:18.941Z,7.90
2022-09-07T19:57:47.665Z,8.80
2022-09-07T20:00:16.180Z,7.40
2022-09-07T20:02:44.247Z,6.75
2022-09-07T20:05:14.731Z,7.60
2022-09-07T20:07:42.720Z,8.32
2022-09-07T20:10:11.944Z,6.63
2022-09-07T20:12:41.264Z,6.70
2022-09-07T20:15:10.743Z,6.47
2022-09-07T20:17:38.747Z,6.72
2022-09-07T20:20:07.529Z,7.22
2022-09-07T20:22:35.624Z,6.90
2022-09-07T20:25:03.652Z,6.55
2022-09-07T20:27:32.241Z,8.38
2022-09-07T20:30:01.740Z,6.35
2022-09-07T20:32:30.875Z,6.95
2022-09-07T20:34:58.916Z,6.70
2022-09-07T20:37:28.224Z,9.32
2022-09-07T20:39:56.315Z,6.32
2022-09-07T20:42:24.389Z,6.88
2022-09-07T20:44:53.616Z,7.43
2022-09-07T20:47:23.876Z,7.25
2022-09-07T20:49:52.634Z,7.32
2022-09-07T20:52:20.739Z,7.00
2022-09-07T20:54:48.841Z,7.93
2022-09-07T20:57:17.058Z,6.68
2022-09-07T20:59:45.063Z,6.82
2022-09-07T21:02:13.257Z,6.97
2022-09-07T21:04:43.364Z,7.30
2022-09-07T21:07:11.682Z,7.18
2022-09-07T21:09:39.814Z,7.47
2022-09-07T21:12:08.131Z,8.70
2022-09-07T21:14:36.593Z,6.93
2022-09-07T21:17:04.711Z,8.25
2022-09-07T21:19:32.700Z,8.73
2022-09-07T21:22:02.183Z,8.70
2022-09-07T21:24:32.575Z,8.75
2022-09-07T21:27:00.859Z,11.07
2022-09-07T21:29:28.890Z,9.65
2022-09-07T21:31:57.201Z,9.73
2022-09-07T21:34:25.359Z,9.35
2022-09-07T21:36:53.870Z,8.43
2022-09-07T21:39:23.181Z,9.98
2022-09-07T21:41:51.598Z,8.65
2022-09-07T21:44:20.451Z,8.43
2022-09-07T21:46:48.748Z,9.20
2022-09-07T21:49:16.863Z,8.45
2022-09-07T21:51:44.869Z,9.18
2022-09-07T21:54:13.039Z,9.48
2022-09-07T21:56:46.502Z,9.48
2022-09-07T21:59:15.439Z,9.60
2022-09-07T22:01:43.471Z,10.48
2022-09-07T22:04:12.172Z,10.48
2022-09-07T22:06:41.068Z,10.52
2022-09-07T22:09:09.501Z,10.45
2022-09-07T22:11:37.564Z,9.77
2022-09-07T22:14:07.278Z,10.45
2022-09-07T22:16:36.304Z,9.60
2022-09-07T22:19:05.185Z,10.48
2022-09-07T22:21:33.628Z,10.45
2022-09-07T22:24:03.499Z,12.40
2022-09-07T22:26:34.299Z,11.18
2022-09-07T22:29:02.283Z,13.73
2022-09-07T22:31:33.790Z,15.10
2022-09-07T22:34:03.925Z,14.30
2022-09-07T22:36:34.019Z,13.75
2022-09-07T22:39:05.628Z,12.43
2022-09-07T22:41:36.664Z,13.23
2022-09-07T22:44:05.655Z,12.27
2022-09-07T22:46:37.589Z,11.98
2022-09-07T22:49:06.986Z,12.25
2022-09-07T22:51:35.265Z,12.05
2022-09-07T22:54:03.335Z,12.60
2022-09-07T22:56:33.088Z,12.85
2022-09-07T22:59:03.473Z,12.05
2022-09-07T23:01:32.468Z,13.23
2022-09-07T23:04:03.167Z,13.05
2022-09-07T23:06:37.320Z,12.15
2022-09-07T23:09:08.108Z,12.13
2022-09-07T23:11:36.394Z,11.95
2022-09-07T23:14:06.567Z,13.75
2022-09-07T23:16:34.794Z,13.02
2022-09-07T23:19:04.956Z,12.38
2022-09-07T23:21:32.969Z,14.18
2022-09-07T23:24:01.740Z,14.05
2022-09-07T23:26:31.610Z,13.55
2022-09-07T23:29:01.766Z,13.77
2022-09-07T23:31:32.015Z,12.15
2022-09-07T23:34:00.334Z,12.88
2022-09-07T23:36:31.033Z,13.60
2022-09-07T23:39:00.520Z,14.25
2022-09-07T23:41:29.674Z,14.13
2022-09-07T23:43:57.976Z,14.25
2022-09-07T23:46:26.329Z,13.38
2022-09-07T23:48:54.367Z,14.18
2022-09-07T23:51:24.470Z,13.10
2022-09-07T23:53:54.626Z,14.60
2022-09-07T23:56:24.434Z,13.82
2022-09-07T23:58:52.810Z,14.52
